sensor_id;sensor_type;location;lat;lon;timestamp;P1;durP1;ratioP1;P2;durP2;ratioP2
14774;SDS011;7479;47.042;15.160;2023-07-31T05:07:24;3.77;;;2.40;;
14774;SDS011;7479;47.042;15.160;2023-07-31T05:12:18;4.17;;;2.50;;
14774;SDS011;7479;47.042;15.160;2023-07-31T05:29:14;5.93;;;3.07;;
14774;SDS011;7479;47.042;15.160;2023-07-31T05:34:08;3.47;;;2.38;;
14774;SDS011;7479;47.042;15.160;2023-07-31T05:39:01;5.35;;;2.45;;
14774;SDS011;7479;47.042;15.160;2023-07-31T05:43:58;3.40;;;2.35;;
14774;SDS011;7479;47.042;15.160;2023-07-31T05:48:54;3.70;;;2.40;;
14774;SDS011;7479;47.042;15.160;2023-07-31T05:53:47;5.85;;;2.80;;
14774;SDS011;7479;47.042;15.160;2023-07-31T05:58:42;4.28;;;2.63;;
14774;SDS011;7479;47.042;15.160;2023-07-31T06:03:36;5.60;;;2.70;;
14774;SDS011;7479;47.042;15.160;2023-07-31T06:08:31;4.95;;;2.50;;
14774;SDS011;7479;47.042;15.160;2023-07-31T06:13:24;5.22;;;2.70;;
14774;SDS011;7479;47.042;15.160;2023-07-31T06:18:18;4.18;;;2.38;;
14774;SDS011;7479;47.042;15.160;2023-07-31T06:23:11;3.60;;;2.10;;
14774;SDS011;7479;47.042;15.160;2023-07-31T06:28:06;2.78;;;2.38;;
14774;SDS011;7479;47.042;15.160;2023-07-31T06:33:00;4.15;;;2.67;;
14774;SDS011;7479;47.042;15.160;2023-07-31T06:37:53;3.60;;;2.85;;
14774;SDS011;7479;47.042;15.160;2023-07-31T06:42:47;5.97;;;2.80;;
14774;SDS011;7479;47.042;15.160;2023-07-31T06:47:42;7.15;;;2.47;;
14774;SDS011;7479;47.042;15.160;2023-07-31T06:52:37;4.93;;;2.45;;
14774;SDS011;7479;47.042;15.160;2023-07-31T06:57:31;3.10;;;2.80;;
14774;SDS011;7479;47.042;15.160;2023-07-31T07:02:25;7.43;;;2.50;;
14774;SDS011;7479;47.042;15.160;2023-07-31T07:07:20;5.47;;;2.80;;
14774;SDS011;7479;47.042;15.160;2023-07-31T07:12:14;3.95;;;2.75;;
14774;SDS011;7479;47.042;15.160;2023-07-31T07:17:07;5.40;;;2.88;;
14774;SDS011;7479;47.042;15.160;2023-07-31T07:22:01;3.05;;;2.22;;
14774;SDS011;7479;47.042;15.160;2023-07-31T07:26:56;3.22;;;2.50;;
14774;SDS011;7479;47.042;15.160;2023-07-31T07:31:49;4.38;;;2.75;;
14774;SDS011;7479;47.042;15.160;2023-07-31T07:36:43;2.97;;;2.58;;
14774;SDS011;7479;47.042;15.160;2023-07-31T07:41:37;3.35;;;2.53;;
14774;SDS011;7479;47.042;15.160;2023-07-31T07:46:32;3.47;;;2.45;;
14774;SDS011;7479;47.042;15.160;2023-07-31T07:51:26;3.40;;;1.90;;
14774;SDS011;7479;47.042;15.160;2023-07-31T07:56:22;2.20;;;2.00;;
14774;SDS011;7479;47.042;15.160;2023-07-31T08:01:17;2.28;;;2.00;;
14774;SDS011;7479;47.042;15.160;2023-07-31T08:06:13;4.30;;;2.00;;
14774;SDS011;7479;47.042;15.160;2023-07-31T08:11:07;2.25;;;2.05;;
14774;SDS011;7479;47.042;15.160;2023-07-31T08:16:01;2.70;;;2.30;;
14774;SDS011;7479;47.042;15.160;2023-07-31T08:20:55;2.60;;;2.40;;
14774;SDS011;7479;47.042;15.160;2023-07-31T08:25:50;2.40;;;2.20;;
14774;SDS011;7479;47.042;15.160;2023-07-31T08:30:43;2.45;;;2.17;;
14774;SDS011;7479;47.042;15.160;2023-07-31T08:35:37;2.47;;;2.22;;
14774;SDS011;7479;47.042;15.160;2023-07-31T08:40:30;2.60;;;2.40;;
14774;SDS011;7479;47.042;15.160;2023-07-31T08:45:26;3.03;;;1.95;;
14774;SDS011;7479;47.042;15.160;2023-07-31T08:50:20;3.05;;;2.42;;
14774;SDS011;7479;47.042;15.160;2023-07-31T08:55:14;2.53;;;2.03;;
14774;SDS011;7479;47.042;15.160;2023-07-31T09:00:09;4.82;;;2.30;;
14774;SDS011;7479;47.042;15.160;2023-07-31T09:05:06;2.17;;;2.00;;
14774;SDS011;7479;47.042;15.160;2023-07-31T09:10:00;3.75;;;2.20;;
14774;SDS011;7479;47.042;15.160;2023-07-31T09:14:54;3.40;;;2.38;;
14774;SDS011;7479;47.042;15.160;2023-07-31T09:19:48;3.55;;;2.20;;
14774;SDS011;7479;47.042;15.160;2023-07-31T09:24:43;5.03;;;2.22;;
14774;SDS011;7479;47.042;15.160;2023-07-31T09:29:37;2.45;;;2.25;;
14774;SDS011;7479;47.042;15.160;2023-07-31T09:34:36;2.63;;;2.17;;
14774;SDS011;7479;47.042;15.160;2023-07-31T09:39:31;2.53;;;2.33;;
14774;SDS011;7479;47.042;15.160;2023-07-31T09:44:39;2.50;;;2.30;;
14774;SDS011;7479;47.042;15.160;2023-07-31T09:49:33;2.60;;;2.05;;
14774;SDS011;7479;47.042;15.160;2023-07-31T09:54:27;2.45;;;2.22;;
14774;SDS011;7479;47.042;15.160;2023-07-31T09:59:20;4.13;;;2.55;;
14774;SDS011;7479;47.042;15.160;2023-07-31T10:04:17;3.35;;;2.35;;
14774;SDS011;7479;47.042;15.160;2023-07-31T10:09:17;2.17;;;1.92;;
14774;SDS011;7479;47.042;15.160;2023-07-31T10:14:16;3.42;;;2.75;;
14774;SDS011;7479;47.042;15.160;2023-07-31T10:19:11;2.80;;;2.50;;
14774;SDS011;7479;47.042;15.160;2023-07-31T10:24:07;2.88;;;2.33;;
14774;SDS011;7479;47.042;15.160;2023-07-31T10:29:01;2.95;;;2.20;;
14774;SDS011;7479;47.042;15.160;2023-07-31T10:33:55;2.60;;;2.35;;
14774;SDS011;7479;47.042;15.160;2023-07-31T10:38:51;3.03;;;2.38;;
14774;SDS011;7479;47.042;15.160;2023-07-31T10:43:47;2.95;;;2.65;;
14774;SDS011;7479;47.042;15.160;2023-07-31T10:48:41;4.38;;;2.65;;
14774;SDS011;7479;47.042;15.160;2023-07-31T10:53:34;4.28;;;2.78;;
14774;SDS011;7479;47.042;15.160;2023-07-31T10:58:29;3.22;;;2.58;;
14774;SDS011;7479;47.042;15.160;2023-07-31T11:03:26;3.42;;;2.40;;
14774;SDS011;7479;47.042;15.160;2023-07-31T11:08:34;4.63;;;2.78;;
14774;SDS011;7479;47.042;15.160;2023-07-31T11:13:28;3.38;;;2.17;;
14774;SDS011;7479;47.042;15.160;2023-07-31T11:18:22;2.58;;;2.38;;
14774;SDS011;7479;47.042;15.160;2023-07-31T11:23:18;3.33;;;2.15;;
14774;SDS011;7479;47.042;15.160;2023-07-31T11:28:13;3.53;;;2.50;;
14774;SDS011;7479;47.042;15.160;2023-07-31T11:33:08;3.55;;;2.20;;
14774;SDS011;7479;47.042;15.160;2023-07-31T11:38:03;5.40;;;2.50;;
14774;SDS011;7479;47.042;15.160;2023-07-31T11:43:04;2.40;;;2.20;;
14774;SDS011;7479;47.042;15.160;2023-07-31T11:47:57;3.45;;;2.60;;
14774;SDS011;7479;47.042;15.160;2023-07-31T11:52:53;3.15;;;2.20;;
14774;SDS011;7479;47.042;15.160;2023-07-31T11:57:50;2.92;;;2.63;;
14774;SDS011;7479;47.042;15.160;2023-07-31T12:02:46;2.63;;;2.40;;
14774;SDS011;7479;47.042;15.160;2023-07-31T12:07:44;2.55;;;2.35;;
14774;SDS011;7479;47.042;15.160;2023-07-31T12:12:38;2.90;;;2.33;;
14774;SDS011;7479;47.042;15.160;2023-07-31T12:17:32;4.43;;;2.10;;
14774;SDS011;7479;47.042;15.160;2023-07-31T12:22:27;3.85;;;2.10;;
14774;SDS011;7479;47.042;15.160;2023-07-31T12:27:21;3.15;;;2.13;;
14774;SDS011;7479;47.042;15.160;2023-07-31T12:32:20;2.75;;;2.45;;
14774;SDS011;7479;47.042;15.160;2023-07-31T12:37:14;3.40;;;2.58;;
14774;SDS011;7479;47.042;15.160;2023-07-31T12:42:13;2.88;;;2.28;;
14774;SDS011;7479;47.042;15.160;2023-07-31T12:47:09;2.83;;;2.53;;
14774;SDS011;7479;47.042;15.160;2023-07-31T12:52:03;4.20;;;2.40;;
14774;SDS011;7479;47.042;15.160;2023-07-31T12:56:57;3.80;;;2.70;;
14774;SDS011;7479;47.042;15.160;2023-07-31T13:01:53;3.47;;;2.38;;
14774;SDS011;7479;47.042;15.160;2023-07-31T13:06:46;4.10;;;2.20;;
14774;SDS011;7479;47.042;15.160;2023-07-31T13:11:40;3.38;;;2.08;;
14774;SDS011;7479;47.042;15.160;2023-07-31T13:16:33;4.20;;;2.38;;
14774;SDS011;7479;47.042;15.160;2023-07-31T13:21:30;2.75;;;2.53;;
14774;SDS011;7479;47.042;15.160;2023-07-31T13:26:23;4.05;;;2.30;;
14774;SDS011;7479;47.042;15.160;2023-07-31T13:31:17;4.78;;;2.35;;
14774;SDS011;7479;47.042;15.160;2023-07-31T13:36:10;3.55;;;2.63;;
14774;SDS011;7479;47.042;15.160;2023-07-31T13:41:07;2.50;;;2.30;;
14774;SDS011;7479;47.042;15.160;2023-07-31T13:46:00;4.63;;;2.50;;
14774;SDS011;7479;47.042;15.160;2023-07-31T13:50:58;9.98;;;7.88;;
14774;SDS011;7479;47.042;15.160;2023-07-31T13:55:52;2.80;;;2.22;;
14774;SDS011;7479;47.042;15.160;2023-07-31T14:00:47;3.53;;;2.50;;
14774;SDS011;7479;47.042;15.160;2023-07-31T14:05:40;2.67;;;2.40;;
14774;SDS011;7479;47.042;15.160;2023-07-31T14:10:34;5.03;;;2.50;;
14774;SDS011;7479;47.042;15.160;2023-07-31T14:15:28;3.80;;;2.45;;
14774;SDS011;7479;47.042;15.160;2023-07-31T14:20:25;2.60;;;2.40;;
14774;SDS011;7479;47.042;15.160;2023-07-31T14:25:18;3.95;;;2.42;;
14774;SDS011;7479;47.042;15.160;2023-07-31T14:30:13;2.60;;;2.40;;
14774;SDS011;7479;47.042;15.160;2023-07-31T14:35:07;2.63;;;2.42;;
14774;SDS011;7479;47.042;15.160;2023-07-31T14:40:02;3.33;;;2.40;;
14774;SDS011;7479;47.042;15.160;2023-07-31T14:45:00;2.78;;;2.58;;
14774;SDS011;7479;47.042;15.160;2023-07-31T14:50:53;4.03;;;2.78;;
14774;SDS011;7479;47.042;15.160;2023-07-31T14:55:54;2.50;;;2.30;;
14774;SDS011;7479;47.042;15.160;2023-07-31T15:05:44;2.55;;;2.35;;
14774;SDS011;7479;47.042;15.160;2023-07-31T15:10:38;2.72;;;2.40;;
14774;SDS011;7479;47.042;15.160;2023-07-31T15:15:33;2.75;;;2.30;;
14774;SDS011;7479;47.042;15.160;2023-07-31T15:20:28;2.95;;;2.72;;
14774;SDS011;7479;47.042;15.160;2023-07-31T15:25:24;2.42;;;2.22;;
14774;SDS011;7479;47.042;15.160;2023-07-31T15:30:20;4.03;;;2.30;;
14774;SDS011;7479;47.042;15.160;2023-07-31T15:35:15;3.10;;;2.80;;
14774;SDS011;7479;47.042;15.160;2023-07-31T15:40:13;3.15;;;2.33;;
14774;SDS011;7479;47.042;15.160;2023-07-31T15:45:07;3.85;;;2.60;;
14774;SDS011;7479;47.042;15.160;2023-07-31T15:50:03;3.28;;;2.40;;
14774;SDS011;7479;47.042;15.160;2023-07-31T15:54:59;4.70;;;2.78;;
14774;SDS011;7479;47.042;15.160;2023-07-31T15:59:53;2.50;;;2.22;;
14774;SDS011;7479;47.042;15.160;2023-07-31T16:04:46;2.97;;;2.60;;
14774;SDS011;7479;47.042;15.160;2023-07-31T16:09:41;2.83;;;2.30;;
14774;SDS011;7479;47.042;15.160;2023-07-31T16:14:36;3.33;;;2.42;;
14774;SDS011;7479;47.042;15.160;2023-07-31T16:19:30;3.78;;;2.47;;
14774;SDS011;7479;47.042;15.160;2023-07-31T16:24:23;4.63;;;2.50;;
14774;SDS011;7479;47.042;15.160;2023-07-31T16:29:22;3.03;;;2.50;;
14774;SDS011;7479;47.042;15.160;2023-07-31T16:34:17;4.85;;;2.70;;
14774;SDS011;7479;47.042;15.160;2023-07-31T16:39:12;2.95;;;2.60;;
14774;SDS011;7479;47.042;15.160;2023-07-31T16:44:08;2.80;;;2.60;;
14774;SDS011;7479;47.042;15.160;2023-07-31T16:49:07;3.67;;;2.42;;
14774;SDS011;7479;47.042;15.160;2023-07-31T16:54:02;2.40;;;2.20;;
14774;SDS011;7479;47.042;15.160;2023-07-31T16:58:56;3.03;;;2.70;;
14774;SDS011;7479;47.042;15.160;2023-07-31T17:03:49;3.55;;;3.20;;
14774;SDS011;7479;47.042;15.160;2023-07-31T17:08:43;2.45;;;2.25;;
14774;SDS011;7479;47.042;15.160;2023-07-31T17:13:38;3.17;;;2.38;;
14774;SDS011;7479;47.042;15.160;2023-07-31T17:18:32;3.85;;;2.63;;
14774;SDS011;7479;47.042;15.160;2023-07-31T17:23:26;3.03;;;2.72;;
14774;SDS011;7479;47.042;15.160;2023-07-31T17:28:20;3.10;;;2.80;;
14774;SDS011;7479;47.042;15.160;2023-07-31T17:33:15;4.00;;;3.20;;
14774;SDS011;7479;47.042;15.160;2023-07-31T17:38:08;3.90;;;2.50;;
14774;SDS011;7479;47.042;15.160;2023-07-31T17:43:02;4.50;;;2.80;;
14774;SDS011;7479;47.042;15.160;2023-07-31T17:47:56;3.05;;;2.80;;
14774;SDS011;7479;47.042;15.160;2023-07-31T17:52:51;6.20;;;2.80;;
14774;SDS011;7479;47.042;15.160;2023-07-31T17:57:44;2.90;;;2.63;;
14774;SDS011;7479;47.042;15.160;2023-07-31T18:02:38;4.55;;;2.90;;
14774;SDS011;7479;47.042;15.160;2023-07-31T18:07:32;3.90;;;3.60;;
14774;SDS011;7479;47.042;15.160;2023-07-31T18:12:27;4.35;;;3.95;;
14774;SDS011;7479;47.042;15.160;2023-07-31T18:17:21;4.43;;;3.22;;
14774;SDS011;7479;47.042;15.160;2023-07-31T18:22:14;7.35;;;5.55;;
14774;SDS011;7479;47.042;15.160;2023-07-31T18:27:09;6.65;;;5.70;;
14774;SDS011;7479;47.042;15.160;2023-07-31T18:32:07;7.05;;;4.43;;
14774;SDS011;7479;47.042;15.160;2023-07-31T18:37:04;9.65;;;5.82;;
14774;SDS011;7479;47.042;15.160;2023-07-31T18:41:58;8.30;;;6.35;;
14774;SDS011;7479;47.042;15.160;2023-07-31T18:46:51;8.90;;;5.93;;
14774;SDS011;7479;47.042;15.160;2023-07-31T18:51:46;8.38;;;6.18;;
14774;SDS011;7479;47.042;15.160;2023-07-31T18:56:40;10.30;;;5.82;;
14774;SDS011;7479;47.042;15.160;2023-07-31T19:01:34;5.93;;;4.07;;
14774;SDS011;7479;47.042;15.160;2023-07-31T19:06:27;4.78;;;3.67;;
14774;SDS011;7479;47.042;15.160;2023-07-31T19:11:24;6.72;;;3.38;;
14774;SDS011;7479;47.042;15.160;2023-07-31T19:16:20;5.47;;;3.60;;
14774;SDS011;7479;47.042;15.160;2023-07-31T19:21:14;3.40;;;3.10;;
14774;SDS011;7479;47.042;15.160;2023-07-31T19:26:09;4.15;;;3.22;;
14774;SDS011;7479;47.042;15.160;2023-07-31T19:31:04;8.25;;;3.63;;
14774;SDS011;7479;47.042;15.160;2023-07-31T19:35:58;4.55;;;3.60;;
14774;SDS011;7479;47.042;15.160;2023-07-31T19:40:52;6.00;;;3.28;;
14774;SDS011;7479;47.042;15.160;2023-07-31T19:45:46;3.70;;;3.40;;
14774;SDS011;7479;47.042;15.160;2023-07-31T19:50:41;3.63;;;3.30;;
14774;SDS011;7479;47.042;15.160;2023-07-31T19:55:34;6.53;;;3.10;;
14774;SDS011;7479;47.042;15.160;2023-07-31T20:00:28;4.80;;;3.50;;
14774;SDS011;7479;47.042;15.160;2023-07-31T20:05:22;4.05;;;3.47;;
14774;SDS011;7479;47.042;15.160;2023-07-31T20:10:19;3.50;;;3.13;;
14774;SDS011;7479;47.042;15.160;2023-07-31T20:15:19;4.65;;;3.10;;
14774;SDS011;7479;47.042;15.160;2023-07-31T20:20:13;4.20;;;3.08;;
14774;SDS011;7479;47.042;15.160;2023-07-31T20:25:07;5.07;;;3.03;;
14774;SDS011;7479;47.042;15.160;2023-07-31T20:30:04;3.58;;;3.13;;
14774;SDS011;7479;47.042;15.160;2023-07-31T20:34:58;5.53;;;3.65;;
